createdAt,value
2022-11-24T00:01:30.981Z,71.00
2022-11-24T00:04:02.783Z,71.20
2022-11-24T00:06:32.983Z,70.90
2022-11-24T00:09:02.554Z,71.00
2022-11-24T00:11:33.957Z,71.00
2022-11-24T00:14:03.308Z,71.00
2022-11-24T00:16:33.688Z,70.90
2022-11-24T00:19:06.270Z,70.90
2022-11-24T00:21:35.176Z,71.00
2022-11-24T00:24:03.913Z,71.00
2022-11-24T00:26:34.737Z,71.10
2022-11-24T00:29:06.087Z,71.00
2022-11-24T00:31:36.971Z,70.90
2022-11-24T00:34:09.049Z,70.90
2022-11-24T00:36:38.065Z,70.90
2022-11-24T00:39:08.401Z,70.90
2022-11-24T00:41:36.927Z,71.00
2022-11-24T00:44:06.805Z,70.90
2022-11-24T00:46:35.473Z,71.10
2022-11-24T00:49:06.279Z,71.00
2022-11-24T00:51:35.057Z,70.90
2022-11-24T00:54:04.370Z,71.10
2022-11-24T00:56:33.633Z,70.90
2022-11-24T00:59:02.572Z,71.00
2022-11-24T01:01:32.017Z,71.00
2022-11-24T01:04:02.653Z,70.90
2022-11-24T01:06:35.635Z,71.00
2022-11-24T01:09:06.755Z,71.10
2022-11-24T01:12:00.767Z,71.10
2022-11-24T01:14:33.667Z,71.10
2022-11-24T01:17:02.719Z,71.00
2022-11-24T01:19:34.463Z,70.90
2022-11-24T01:22:06.194Z,71.00
2022-11-24T01:24:35.876Z,71.10
2022-11-24T01:27:04.722Z,71.20
2022-11-24T01:29:34.146Z,71.00
2022-11-24T01:32:02.781Z,71.10
2022-11-24T01:34:33.200Z,71.20
2022-11-24T01:37:11.987Z,71.30
2022-11-24T01:39:41.195Z,71.20
2022-11-24T01:42:10.550Z,71.30
2022-11-24T01:44:39.927Z,71.20
2022-11-24T01:47:29.915Z,71.20
2022-11-24T01:50:02.893Z,71.40
2022-11-24T01:52:38.996Z,71.20
2022-11-24T01:55:12.383Z,71.20
2022-11-24T01:57:45.449Z,71.30
2022-11-24T02:00:16.235Z,71.40
2022-11-24T02:02:46.428Z,71.20
2022-11-24T02:05:25.570Z,71.20
2022-11-24T02:08:03.166Z,71.30
2022-11-24T02:10:34.164Z,71.30
2022-11-24T02:13:02.577Z,71.20
2022-11-24T02:15:39.077Z,71.30
2022-11-24T02:18:10.948Z,71.20
2022-11-24T02:21:00.560Z,71.30
2022-11-24T02:23:41.947Z,71.30
2022-11-24T02:26:20.817Z,71.30
2022-11-24T02:28:51.975Z,71.20
2022-11-24T02:31:24.734Z,71.30
2022-11-24T02:33:57.623Z,71.20
2022-11-24T02:36:26.637Z,71.20
2022-11-24T02:38:56.894Z,71.30
2022-11-24T02:41:37.355Z,71.30
2022-11-24T02:44:18.087Z,71.40
2022-11-24T02:47:08.224Z,71.20
2022-11-24T02:49:56.296Z,71.30
2022-11-24T02:52:44.220Z,71.20
2022-11-24T02:55:33.088Z,71.30
2022-11-24T02:58:02.463Z,71.40
2022-11-24T03:00:33.277Z,71.30
2022-11-24T03:03:01.754Z,71.30
2022-11-24T03:05:30.284Z,71.40
2022-11-24T03:07:58.666Z,71.40
2022-11-24T03:10:26.997Z,71.40
2022-11-24T03:12:56.382Z,71.40
2022-11-24T03:15:25.004Z,71.30
2022-11-24T03:17:57.561Z,71.40
2022-11-24T03:20:27.130Z,71.40
2022-11-24T03:22:55.986Z,71.30
2022-11-24T03:25:24.585Z,71.50
2022-11-24T03:27:53.903Z,71.40
2022-11-24T03:30:22.298Z,71.40
2022-11-24T03:32:54.031Z,71.50
2022-11-24T03:35:23.199Z,71.50
2022-11-24T03:37:51.688Z,71.60
2022-11-24T03:40:20.402Z,71.50
2022-11-24T03:42:48.752Z,71.50
2022-11-24T03:45:44.233Z,71.30
2022-11-24T03:48:07.942Z,71.50
2022-11-24T03:50:36.182Z,71.40
2022-11-24T03:53:04.603Z,71.50
2022-11-24T03:55:32.963Z,71.40
2022-11-24T03:58:01.514Z,71.50
2022-11-24T04:00:30.336Z,71.60
2022-11-24T04:02:58.781Z,71.50
2022-11-24T04:05:28.759Z,71.50
2022-11-24T04:07:58.086Z,71.50
2022-11-24T04:10:26.869Z,71.50
2022-11-24T04:12:54.547Z,71.70
2022-11-24T04:15:23.718Z,71.60
2022-11-24T04:17:52.365Z,71.60
2022-11-24T04:20:21.122Z,71.50
2022-11-24T04:22:54.036Z,71.60
2022-11-24T04:25:22.384Z,71.60
2022-11-24T04:27:53.265Z,71.60
2022-11-24T04:30:22.409Z,71.70
2022-11-24T04:32:50.998Z,71.60
2022-11-24T04:35:20.006Z,71.50
2022-11-24T04:37:50.112Z,71.80
2022-11-24T04:40:19.022Z,71.70
2022-11-24T04:42:54.138Z,71.70
2022-11-24T04:45:22.672Z,71.60
2022-11-24T04:47:51.879Z,71.60
2022-11-24T04:50:20.821Z,71.70
2022-11-24T04:52:50.543Z,71.60
2022-11-24T04:55:19.176Z,71.70
2022-11-24T04:57:47.476Z,71.70
2022-11-24T05:00:16.642Z,71.70
2022-11-24T05:02:44.979Z,71.80
2022-11-24T05:05:13.253Z,71.70
2022-11-24T05:07:42.921Z,71.80
2022-11-24T05:10:30.484Z,71.90
2022-11-24T05:12:59.585Z,71.90
2022-11-24T05:15:28.045Z,71.70
2022-11-24T05:17:57.045Z,71.90
2022-11-24T05:20:26.017Z,71.70
2022-11-24T05:22:54.358Z,71.80
2022-11-24T05:25:24.255Z,71.70
2022-11-24T05:27:52.958Z,71.70
2022-11-24T05:30:23.306Z,71.80
2022-11-24T05:32:51.868Z,71.80
2022-11-24T05:35:20.196Z,71.80
2022-11-24T05:37:48.936Z,71.80
2022-11-24T05:40:17.955Z,71.80
2022-11-24T05:42:48.477Z,71.70
2022-11-24T05:45:22.183Z,71.90
2022-11-24T05:47:51.537Z,71.80
2022-11-24T05:50:22.196Z,71.70
2022-11-24T05:52:51.178Z,71.80
2022-11-24T05:55:20.497Z,71.80
2022-11-24T05:57:50.386Z,71.90
2022-11-24T06:00:20.078Z,71.80
2022-11-24T06:02:49.399Z,71.80
2022-11-24T06:05:18.753Z,71.70
2022-11-24T06:07:50.290Z,71.80
2022-11-24T06:10:21.250Z,71.90
2022-11-24T06:12:51.563Z,71.90
2022-11-24T06:15:20.100Z,71.90
2022-11-24T06:17:54.607Z,71.80
2022-11-24T06:20:31.175Z,71.90
2022-11-24T06:23:01.901Z,71.90
2022-11-24T06:25:30.617Z,72.00
2022-11-24T06:28:05.106Z,71.80
2022-11-24T06:30:33.915Z,71.90
2022-11-24T06:33:04.667Z,71.80
2022-11-24T06:35:33.065Z,71.90
2022-11-24T06:38:01.580Z,71.90
2022-11-24T06:40:30.190Z,71.80
2022-11-24T06:43:02.232Z,71.70
2022-11-24T06:45:31.653Z,71.90
2022-11-24T06:48:00.049Z,71.80
2022-11-24T06:50:33.394Z,71.70
2022-11-24T06:53:02.152Z,71.80
2022-11-24T06:55:33.536Z,71.90
2022-11-24T06:58:03.467Z,71.90
2022-11-24T07:00:32.621Z,71.70
2022-11-24T07:03:02.012Z,71.80
2022-11-24T07:05:30.455Z,71.70
2022-11-24T07:08:00.630Z,71.90
2022-11-24T07:10:29.573Z,71.90
2022-11-24T07:12:58.166Z,71.80
2022-11-24T07:15:29.759Z,71.90
2022-11-24T07:17:58.203Z,71.70
2022-11-24T07:20:26.687Z,71.80
2022-11-24T07:22:57.447Z,71.90
2022-11-24T07:25:25.924Z,72.00
2022-11-24T07:27:57.729Z,71.90
2022-11-24T07:30:28.940Z,72.10
2022-11-24T07:33:00.529Z,71.70
2022-11-24T07:35:30.011Z,71.80
2022-11-24T07:38:01.758Z,71.90
2022-11-24T07:40:30.491Z,72.00
2022-11-24T07:43:02.357Z,72.00
2022-11-24T07:45:32.367Z,72.00
2022-11-24T07:48:00.853Z,71.80
2022-11-24T07:50:29.206Z,71.90
2022-11-24T07:53:01.844Z,71.80
2022-11-24T07:55:30.674Z,71.80
2022-11-24T07:58:01.272Z,71.90
2022-11-24T08:00:32.180Z,71.80
2022-11-24T08:03:03.278Z,71.80
2022-11-24T08:05:31.604Z,71.90
2022-11-24T08:08:01.602Z,71.80
2022-11-24T08:10:29.995Z,71.90
2022-11-24T08:13:01.633Z,71.90
2022-11-24T08:15:31.367Z,72.00
2022-11-24T08:18:02.816Z,72.00
2022-11-24T08:20:33.026Z,72.00
2022-11-24T08:23:02.010Z,71.90
2022-11-24T08:25:33.118Z,72.00
2022-11-24T08:28:02.289Z,72.00
2022-11-24T08:30:32.116Z,71.80
2022-11-24T08:33:00.952Z,71.90
2022-11-24T08:35:29.527Z,72.00
2022-11-24T08:38:03.182Z,72.10
2022-11-24T08:40:33.409Z,72.00
2022-11-24T08:43:02.215Z,72.00
2022-11-24T08:45:33.355Z,72.00
2022-11-24T08:48:05.577Z,72.10
2022-11-24T08:50:35.558Z,72.10
2022-11-24T08:53:03.965Z,72.20
2022-11-24T08:55:32.419Z,72.10
2022-11-24T08:58:01.009Z,72.10
2022-11-24T09:00:30.861Z,72.10
2022-11-24T09:03:00.150Z,72.00
2022-11-24T09:05:51.235Z,72.10
2022-11-24T09:08:17.284Z,72.20
2022-11-24T09:10:45.723Z,72.20
2022-11-24T09:13:14.421Z,72.10
2022-11-24T09:15:44.256Z,72.20
2022-11-24T09:18:12.719Z,72.20
2022-11-24T09:20:41.000Z,72.20
2022-11-24T09:23:09.392Z,72.20
2022-11-24T09:25:37.827Z,72.10
2022-11-24T09:28:06.491Z,72.10
2022-11-24T09:30:35.035Z,72.20
2022-11-24T09:33:05.106Z,72.30
2022-11-24T09:35:33.342Z,72.30
2022-11-24T09:38:01.788Z,72.20
2022-11-24T09:40:30.691Z,72.40
2022-11-24T09:43:04.911Z,72.30
2022-11-24T09:46:05.120Z,72.10
2022-11-24T09:48:40.568Z,72.40
2022-11-24T09:51:13.061Z,72.30
2022-11-24T09:53:47.945Z,72.30
2022-11-24T09:56:21.985Z,72.30
2022-11-24T09:58:52.599Z,72.30
2022-11-24T10:01:23.659Z,72.50
2022-11-24T10:03:54.348Z,72.40
2022-11-24T10:06:25.962Z,72.40
2022-11-24T10:09:20.459Z,72.40
2022-11-24T10:11:58.660Z,72.40
2022-11-24T10:14:41.990Z,72.40
2022-11-24T10:17:22.371Z,72.40
2022-11-24T10:19:58.652Z,72.20
2022-11-24T10:22:40.674Z,72.10
2022-11-24T10:25:14.079Z,72.10
2022-11-24T10:27:45.995Z,72.10
2022-11-24T10:30:17.514Z,72.00
2022-11-24T10:32:48.736Z,72.00
2022-11-24T10:35:21.787Z,71.90
2022-11-24T10:37:59.163Z,72.00
2022-11-24T10:43:23.985Z,71.90
2022-11-24T10:45:53.421Z,72.10
2022-11-24T10:48:26.281Z,72.30
2022-11-24T10:51:04.478Z,72.40
2022-11-24T10:53:37.109Z,72.40
2022-11-24T10:56:07.072Z,72.50
2022-11-24T10:58:38.467Z,72.50
2022-11-24T11:01:22.921Z,72.30
2022-11-24T11:03:53.311Z,72.20
2022-11-24T11:06:25.725Z,72.20
2022-11-24T11:09:19.261Z,72.10
2022-11-24T11:11:49.525Z,72.20
2022-11-24T11:14:31.818Z,72.20
2022-11-24T11:17:00.717Z,72.30
2022-11-24T11:19:52.367Z,72.40
2022-11-24T11:22:28.044Z,72.10
2022-11-24T11:25:20.864Z,72.00
2022-11-24T11:27:49.752Z,71.90
2022-11-24T11:36:12.068Z,71.90
2022-11-24T11:38:42.704Z,71.80
2022-11-24T11:41:21.429Z,71.80
2022-11-24T11:43:59.426Z,72.10
2022-11-24T11:46:32.073Z,71.80
2022-11-24T11:49:00.895Z,71.80
2022-11-24T11:52:03.689Z,71.90
2022-11-24T11:54:48.856Z,71.80
2022-11-24T11:57:24.809Z,71.80
2022-11-24T12:00:16.573Z,71.60
2022-11-24T12:03:20.507Z,71.60
2022-11-24T12:06:03.786Z,65.20
2022-11-24T12:09:11.507Z,71.50
2022-11-24T12:11:38.856Z,71.60
2022-11-24T12:14:15.363Z,65.00
2022-11-24T12:16:54.502Z,65.60
2022-11-24T12:19:39.257Z,71.50
2022-11-24T12:22:15.013Z,65.20
2022-11-24T12:24:52.154Z,71.40
2022-11-24T12:27:33.288Z,64.50
2022-11-24T12:30:11.319Z,71.30
2022-11-24T12:33:00.221Z,64.60
2022-11-24T12:35:36.786Z,71.40
2022-11-24T12:38:20.153Z,64.90
2022-11-24T12:41:40.597Z,64.60
2022-11-24T12:44:17.869Z,71.20
2022-11-24T12:46:53.886Z,71.20
2022-11-24T12:49:31.474Z,71.20
2022-11-24T12:52:05.741Z,71.30
2022-11-24T12:54:40.473Z,71.30
2022-11-24T12:57:15.709Z,71.20
2022-11-24T12:59:54.090Z,71.10
2022-11-24T13:02:34.616Z,71.20
2022-11-24T13:05:16.538Z,71.10
2022-11-24T13:07:47.933Z,71.10
2022-11-24T13:13:27.166Z,71.00
2022-11-24T13:19:14.188Z,71.00
2022-11-24T13:22:01.829Z,70.90
2022-11-24T13:24:34.066Z,63.60
2022-11-24T13:27:52.924Z,62.90
2022-11-24T13:30:55.870Z,63.60
2022-11-24T13:33:36.404Z,63.30
2022-11-24T13:36:33.978Z,64.00
2022-11-24T13:39:04.726Z,63.80
2022-11-24T13:42:10.580Z,63.50
2022-11-24T13:44:59.980Z,63.80
2022-11-24T13:47:52.225Z,63.80
2022-11-24T13:50:58.357Z,63.40
2022-11-24T13:53:32.926Z,63.80
2022-11-24T13:56:04.696Z,63.50
2022-11-24T13:58:37.988Z,63.50
2022-11-24T14:01:15.921Z,63.60
2022-11-24T14:04:28.656Z,63.30
2022-11-24T14:06:55.678Z,70.80
2022-11-24T14:09:28.204Z,70.70
2022-11-24T14:12:02.620Z,70.70
2022-11-24T14:14:31.106Z,64.30
2022-11-24T14:17:17.897Z,70.70
2022-11-24T14:19:48.269Z,70.70
2022-11-24T14:22:21.139Z,64.40
2022-11-24T14:24:57.347Z,64.50
2022-11-24T14:27:35.105Z,70.70
2022-11-24T14:30:05.697Z,64.50
2022-11-24T14:32:34.008Z,64.20
2022-11-24T14:35:02.572Z,64.50
2022-11-24T14:37:32.343Z,70.70
2022-11-24T14:40:00.822Z,64.40
2022-11-24T14:42:29.497Z,64.40
2022-11-24T14:44:59.710Z,64.30
2022-11-24T14:47:32.517Z,70.70
2022-11-24T14:50:11.029Z,70.80
2022-11-24T14:52:46.821Z,70.70
2022-11-24T14:55:29.376Z,70.80
2022-11-24T14:57:58.499Z,70.70
2022-11-24T15:00:29.682Z,70.70
2022-11-24T15:03:16.008Z,64.40
2022-11-24T15:05:58.608Z,70.70
2022-11-24T15:08:30.900Z,70.70
2022-11-24T15:11:01.413Z,70.80
2022-11-24T15:13:33.604Z,70.80
2022-11-24T15:16:07.545Z,64.40
2022-11-24T15:18:43.079Z,70.70
2022-11-24T15:21:17.457Z,70.70
2022-11-24T15:24:06.938Z,70.80
2022-11-24T15:26:41.606Z,70.70
2022-11-24T15:29:11.177Z,71.00
2022-11-24T15:31:40.709Z,70.90
2022-11-24T15:34:14.505Z,70.90
2022-11-24T15:36:43.160Z,71.00
2022-11-24T15:39:13.225Z,71.00
2022-11-24T15:41:43.248Z,71.00
2022-11-24T15:44:12.096Z,71.00
2022-11-24T15:46:40.815Z,71.00
2022-11-24T15:49:09.333Z,70.90
2022-11-24T15:51:42.460Z,71.10
2022-11-24T15:54:14.888Z,71.10
2022-11-24T15:56:44.567Z,71.10
2022-11-24T15:59:20.387Z,71.00
2022-11-24T16:01:51.244Z,71.00
2022-11-24T16:04:19.873Z,71.00
2022-11-24T16:06:48.260Z,71.20
2022-11-24T16:09:18.202Z,71.10
2022-11-24T16:11:46.696Z,71.20
2022-11-24T16:14:15.613Z,71.20
2022-11-24T16:16:44.419Z,71.20
2022-11-24T16:19:12.996Z,71.30
2022-11-24T16:21:41.532Z,71.10
2022-11-24T16:24:10.524Z,71.20
2022-11-24T16:26:40.364Z,71.40
2022-11-24T16:29:08.937Z,71.20
2022-11-24T16:31:37.885Z,71.20
2022-11-24T16:34:08.198Z,71.20
2022-11-24T16:36:37.019Z,71.30
2022-11-24T16:39:05.840Z,71.40
2022-11-24T16:41:34.670Z,71.40
2022-11-24T16:44:06.850Z,71.30
2022-11-24T16:46:36.253Z,71.40
2022-11-24T16:49:05.145Z,71.30
2022-11-24T16:51:35.145Z,71.30
2022-11-24T16:54:05.049Z,71.30
2022-11-24T16:56:33.957Z,71.30
2022-11-24T16:59:04.398Z,71.30
2022-11-24T17:01:33.346Z,71.50
2022-11-24T17:04:02.043Z,71.40
2022-11-24T17:06:30.527Z,71.40
2022-11-24T17:08:59.369Z,71.30
2022-11-24T17:11:30.232Z,71.40
2022-11-24T17:13:59.375Z,71.40
2022-11-24T17:16:29.912Z,71.50
2022-11-24T17:19:00.064Z,71.40
2022-11-24T17:21:30.112Z,71.50
2022-11-24T17:24:01.531Z,71.60
2022-11-24T17:26:30.086Z,71.60
2022-11-24T17:28:58.948Z,71.40
2022-11-24T17:31:32.019Z,71.50
2022-11-24T17:34:01.649Z,71.50
2022-11-24T17:36:31.660Z,71.60
2022-11-24T17:39:00.671Z,71.50
2022-11-24T17:41:29.688Z,71.50
2022-11-24T17:43:58.258Z,71.50
2022-11-24T17:46:27.972Z,71.50
2022-11-24T17:48:58.341Z,71.50
2022-11-24T17:51:27.983Z,71.70
2022-11-24T17:53:57.497Z,71.70
2022-11-24T17:56:27.661Z,71.60
2022-11-24T17:58:57.729Z,71.60
2022-11-24T18:01:28.567Z,71.60
2022-11-24T18:03:59.060Z,71.60
2022-11-24T18:06:29.564Z,71.50
2022-11-24T18:08:59.190Z,71.60
2022-11-24T18:11:31.659Z,71.70
2022-11-24T18:14:04.942Z,71.60
2022-11-24T18:16:35.361Z,71.70
2022-11-24T18:19:10.941Z,71.70
2022-11-24T18:21:41.487Z,71.70
2022-11-24T18:24:11.479Z,71.50
2022-11-24T18:26:40.772Z,71.50
2022-11-24T18:29:09.840Z,71.80
2022-11-24T18:31:38.944Z,71.50
2022-11-24T18:34:09.122Z,71.50
2022-11-24T18:36:37.883Z,71.50
2022-11-24T18:39:08.666Z,71.40
2022-11-24T18:41:37.563Z,71.70
2022-11-24T18:44:08.434Z,71.70
2022-11-24T18:46:37.240Z,71.60
2022-11-24T18:49:07.591Z,71.40
2022-11-24T18:51:37.388Z,71.50
2022-11-24T18:54:06.079Z,71.50
2022-11-24T18:56:34.518Z,71.60
2022-11-24T18:59:02.881Z,71.50
2022-11-24T19:01:32.365Z,71.50
2022-11-24T19:04:03.339Z,71.50
2022-11-24T19:06:35.176Z,71.50
2022-11-24T19:09:07.129Z,71.40
2022-11-24T19:11:37.893Z,71.60
2022-11-24T19:14:10.071Z,71.50
2022-11-24T19:16:39.402Z,71.50
2022-11-24T19:19:09.529Z,71.50
2022-11-24T19:21:40.408Z,71.50
2022-11-24T19:24:11.636Z,71.50
2022-11-24T19:26:40.656Z,71.30
2022-11-24T19:29:09.603Z,71.50
2022-11-24T19:31:39.584Z,71.50
2022-11-24T19:34:08.956Z,71.60
2022-11-24T19:36:38.157Z,71.60
2022-11-24T19:39:06.853Z,71.60
2022-11-24T19:41:36.631Z,71.60
2022-11-24T19:44:05.326Z,71.70
2022-11-24T19:46:34.435Z,71.50
2022-11-24T19:49:04.586Z,71.50
2022-11-24T19:51:34.839Z,71.50
2022-11-24T19:54:03.931Z,71.70
2022-11-24T19:56:35.031Z,71.50
2022-11-24T19:59:06.938Z,71.50
2022-11-24T20:01:38.205Z,71.60
2022-11-24T20:04:10.391Z,71.50
2022-11-24T20:06:41.963Z,71.70
2022-11-24T20:09:11.934Z,71.70
2022-11-24T20:11:41.323Z,71.70
2022-11-24T20:14:14.022Z,71.70
2022-11-24T20:16:43.486Z,71.60
2022-11-24T20:19:13.705Z,71.70
2022-11-24T20:21:46.025Z,71.60
2022-11-24T20:24:16.601Z,71.80
2022-11-24T20:26:47.519Z,71.80
2022-11-24T20:29:18.067Z,71.70
2022-11-24T20:31:48.279Z,71.80
2022-11-24T20:34:17.999Z,71.80
2022-11-24T20:36:47.435Z,71.70
2022-11-24T20:39:18.066Z,71.70
2022-11-24T20:41:47.116Z,71.80
2022-11-24T20:44:18.753Z,71.80
2022-11-24T20:46:47.646Z,71.60
2022-11-24T20:49:18.715Z,71.80
2022-11-24T20:51:48.043Z,71.80
2022-11-24T20:54:18.538Z,71.80
2022-11-24T20:56:47.637Z,71.90
2022-11-24T20:59:21.302Z,71.80
2022-11-24T21:01:57.248Z,71.80
2022-11-24T21:04:27.919Z,71.80
2022-11-24T21:06:56.518Z,71.90
2022-11-24T21:09:27.166Z,71.90
2022-11-24T21:11:56.201Z,71.90
2022-11-24T21:14:30.028Z,71.90
2022-11-24T21:17:01.163Z,71.80
2022-11-24T21:19:29.702Z,71.90
2022-11-24T21:21:58.958Z,71.90
2022-11-24T21:24:31.048Z,71.90
2022-11-24T21:26:59.358Z,71.90
2022-11-24T21:29:29.395Z,71.80
2022-11-24T21:31:57.888Z,71.80
2022-11-24T21:34:26.985Z,71.80
2022-11-24T21:36:55.330Z,71.80
2022-11-24T21:39:23.804Z,71.80
2022-11-24T21:41:52.141Z,71.70
2022-11-24T21:44:20.626Z,71.90
2022-11-24T21:46:55.741Z,71.70
2022-11-24T21:49:24.822Z,71.80
2022-11-24T21:51:55.892Z,71.80
2022-11-24T21:54:24.979Z,71.90
2022-11-24T21:56:55.411Z,71.90
2022-11-24T21:59:23.845Z,71.60
2022-11-24T22:01:53.592Z,71.70
2022-11-24T22:04:22.488Z,71.70
2022-11-24T22:06:50.899Z,71.70
2022-11-24T22:09:19.442Z,71.70
2022-11-24T22:11:52.229Z,71.70
2022-11-24T22:14:20.773Z,71.70
2022-11-24T22:16:49.322Z,71.70
2022-11-24T22:19:20.105Z,71.70
2022-11-24T22:21:48.565Z,71.70
2022-11-24T22:24:17.224Z,71.60
2022-11-24T22:26:45.613Z,71.70
2022-11-24T22:29:14.261Z,71.70
2022-11-24T22:31:43.060Z,71.60
2022-11-24T22:34:11.464Z,71.70
2022-11-24T22:36:41.717Z,71.60
2022-11-24T22:39:13.188Z,71.70
2022-11-24T22:41:41.850Z,71.70
2022-11-24T22:44:10.443Z,71.80
2022-11-24T22:46:39.229Z,71.80
2022-11-24T22:49:08.095Z,71.90
2022-11-24T22:51:40.965Z,71.80
2022-11-24T22:54:14.313Z,71.80
2022-11-24T22:56:42.601Z,71.70
2022-11-24T22:59:10.917Z,71.70
2022-11-24T23:01:39.407Z,71.80
2022-11-24T23:04:08.020Z,71.70
2022-11-24T23:06:37.065Z,71.70
2022-11-24T23:09:07.641Z,71.70
2022-11-24T23:11:39.446Z,71.60
2022-11-24T23:14:12.660Z,71.80
2022-11-24T23:16:41.603Z,71.70
2022-11-24T23:19:10.720Z,71.80
2022-11-24T23:21:40.092Z,71.80
2022-11-24T23:24:11.728Z,71.70
2022-11-24T23:26:41.889Z,71.60
2022-11-24T23:29:11.874Z,71.60
2022-11-24T23:31:41.043Z,71.60
2022-11-24T23:34:09.898Z,71.70
2022-11-24T23:36:38.490Z,71.60
2022-11-24T23:39:12.170Z,71.70
2022-11-24T23:41:41.292Z,71.80
2022-11-24T23:44:10.435Z,71.60
2022-11-24T23:46:39.185Z,71.70
2022-11-24T23:49:07.791Z,71.70
2022-11-24T23:51:36.732Z,71.70
2022-11-24T23:54:10.590Z,71.80
2022-11-24T23:56:40.112Z,71.70
2022-11-24T23:59:12.219Z,71.70
